Airfield :
LOGIN :

Register | Disclaimer

   EN    FR    IT 

 










Legend :    VFR   Marginal VFR   IFR   Intensive IFR   Very Intensive IFR
Visi :
Ceiling :
>= 8 km
>= 3000ft
5 to 8 km
1000 to 3000 ft
1500m to 5 km
500 to 1000 ft
800 to 1500m
200 to 500 ft
< 800m
< 200 ft
Symbols :   Thunderstorms  Fog  Heavy snow  Heavy precipitations  Wind > 20 kt
SIGMETs :     Misc.  Thunderstorms  Icing  Turbulence  Mountain Waves  Volcanic Ashes







- Airport Elevation : 499 ft
- IATA code : TLS
- Download approach charts


LFBO - Toulouse / Blagnac

CURRENT METAR :
  • 210100Z AUTO 17004KT CAVOK 15/14 Q1018 TEMPO 2000 BR BKN003

EXPIRED METARs :
  • 210030Z AUTO 18004KT CAVOK 15/14 Q1018 TEMPO 2000 BR BKN003
  • 210000Z AUTO 16006KT CAVOK 16/14 Q1018 BECMG 4000 BR BKN006
  • 202330Z AUTO 16006KT CAVOK 16/14 Q1018 BECMG 4000 BR BKN006
  • 202300Z AUTO 15007KT CAVOK 16/14 Q1018 TEMPO BKN006
  • 202230Z AUTO 14009KT CAVOK 17/15 Q1018 TEMPO BKN006

TAF TAF LFBO
Valid from the 21 at 00:00 until the 22 at 06:00 UTC


202300Z 2100/2206 18005KT 9999 FEW008
BECMG 2100/2102 4000 BR BKN006
TEMPO 2102/2106 2000 BR BKN003
PROB30 2103/2106 0700 FG VV///
FM210900 29010KT 9999 BKN040
PROB30
TEMPO 2202/2206 -SHRA SCT020TCU
ATIS : +33 5 62 74 66 36
No reported NOTAMs for that airfield.



MET'MAP, your aeronautical weather chart ! - Copyright ORBIFLY December 2007 - Disclaimer

ORBIFLY MET'MAP TEAM :

Programming & Development : Alexandra Zaïnal
Concept & Development : Baudouin d'Aumeries
Co-Development & Prog : Marc-Olivier Méhu
Technical & hardware support : Manuel Goepfert

Contact : metmap@orbifly.com




SOURCES & CREDITS :

   NOAA